Time;durP1;ratioP1;P1;durP2;ratioP2;P2;SDS_P1;SDS_P2;PMS_P1;PMS_P2;Temp;Humidity;BMP_temperature;BMP_pressure;BME280_temperature;BME280_humidity;BME280_pressure;Samples;Min_cycle;Max_cycle;Signal;HPM_P1;HPM_P2
2023/01/31 00:01:16;;;;;;;14.52;1.67;;;;;;;;;;5055777;28;20140;-82
2023/01/31 00:03:43;;;;;;;8.25;1.90;;;;;;;;;;5055707;28;20098;-82
2023/01/31 00:06:27;;;;;;;8.25;1.50;;;;;;;;;;5073237;28;20044;-81
2023/01/31 00:08:55;;;;;;;12.00;1.70;;;;;;;;;;5056799;28;20080;-83
2023/01/31 00:11:24;;;;;;;5.28;0.90;;;;;;;;;;5075130;28;20580;-82
2023/01/31 00:13:52;;;;;;;6.30;1.23;;;;;;;;;;5056511;28;20068;-82
2023/01/31 00:16:20;;;;;;;7.28;1.27;;;;;;;;;;5058267;28;20080;-83
2023/01/31 00:18:48;;;;;;;6.32;1.25;;;;;;;;;;5061987;28;20084;-84
2023/01/31 00:21:19;;;;;;;8.20;1.30;;;;;;;;;;5087143;28;20044;-82
2023/01/31 00:23:47;;;;;;;3.90;1.00;;;;;;;;;;5070452;28;20464;-84
2023/01/31 00:26:16;;;;;;;9.18;1.63;;;;;;;;;;5087589;28;20044;-82
2023/01/31 00:28:44;;;;;;;7.45;1.63;;;;;;;;;;5087951;28;20102;-84
2023/01/31 00:31:12;;;;;;;9.25;1.30;;;;;;;;;;5071417;28;20072;-82
2023/01/31 00:33:40;;;;;;;5.90;1.23;;;;;;;;;;5089278;28;20051;-83
2023/01/31 00:36:09;;;;;;;9.38;1.70;;;;;;;;;;5071408;28;20059;-83
2023/01/31 00:38:36;;;;;;;7.57;1.65;;;;;;;;;;5088719;28;20108;-84
2023/01/31 00:41:05;;;;;;;6.55;1.38;;;;;;;;;;5070924;28;20531;-83
2023/01/31 00:43:32;;;;;;;8.80;1.08;;;;;;;;;;5070381;28;20042;-82
2023/01/31 00:45:59;;;;;;;4.72;1.20;;;;;;;;;;5087632;28;20484;-83
2023/01/31 00:48:27;;;;;;;12.00;1.85;;;;;;;;;;5089873;28;20044;-83
2023/01/31 00:50:54;;;;;;;9.23;1.30;;;;;;;;;;5071578;28;20036;-83
2023/01/31 00:53:24;;;;;;;7.65;1.17;;;;;;;;;;5070411;28;20150;-82
2023/01/31 00:55:53;;;;;;;6.32;1.30;;;;;;;;;;5071291;28;20107;-81
2023/01/31 00:58:20;;;;;;;5.57;1.20;;;;;;;;;;5070835;28;20098;-82
2023/01/31 01:00:48;;;;;;;10.38;1.48;;;;;;;;;;5070706;28;20083;-83
2023/01/31 01:03:15;;;;;;;6.70;1.42;;;;;;;;;;5070822;28;20055;-82
2023/01/31 01:05:42;;;;;;;5.68;1.38;;;;;;;;;;5070554;28;20048;-82
2023/01/31 01:08:09;;;;;;;11.13;1.75;;;;;;;;;;5065037;28;20045;-83
2023/01/31 01:10:37;;;;;;;6.28;1.38;;;;;;;;;;5065493;28;20041;-82
2023/01/31 01:13:04;;;;;;;5.20;0.95;;;;;;;;;;5067194;28;20105;-82
2023/01/31 01:15:32;;;;;;;4.60;1.10;;;;;;;;;;5060533;28;20101;-82
2023/01/31 01:18:00;;;;;;;7.03;1.15;;;;;;;;;;5072029;28;20044;-82
2023/01/31 01:20:27;;;;;;;6.43;1.40;;;;;;;;;;5072055;28;20067;-82
2023/01/31 01:22:54;;;;;;;5.53;0.98;;;;;;;;;;5055204;28;20044;-82
2023/01/31 01:25:21;;;;;;;6.28;1.02;;;;;;;;;;5054178;28;20103;-81
2023/01/31 01:27:49;;;;;;;5.05;1.40;;;;;;;;;;5075947;28;20044;-82
2023/01/31 01:30:16;;;;;;;8.75;1.60;;;;;;;;;;5058389;28;20131;-82
2023/01/31 01:32:43;;;;;;;10.50;1.80;;;;;;;;;;5058467;28;20564;-81
2023/01/31 01:35:10;;;;;;;8.82;1.27;;;;;;;;;;5058285;28;20127;-82
2023/01/31 01:37:38;;;;;;;5.35;1.65;;;;;;;;;;5058338;28;20135;-81
2023/01/31 01:40:05;;;;;;;8.82;1.42;;;;;;;;;;5058317;28;20084;-82
2023/01/31 01:42:34;;;;;;;7.00;1.48;;;;;;;;;;5075880;28;20051;-83
2023/01/31 01:45:04;;;;;;;7.32;1.50;;;;;;;;;;5076139;28;20044;-83
2023/01/31 01:47:48;;;;;;;8.07;1.90;;;;;;;;;;5075350;28;20127;-82
2023/01/31 01:50:19;;;;;;;5.75;1.05;;;;;;;;;;5075754;28;20135;-82
2023/01/31 01:52:49;;;;;;;6.18;1.40;;;;;;;;;;5058030;28;20143;-82
2023/01/31 01:55:19;;;;;;;5.88;1.25;;;;;;;;;;5057921;28;20083;-82
2023/01/31 01:57:49;;;;;;;9.73;1.42;;;;;;;;;;5072507;28;20071;-84
2023/01/31 02:00:21;;;;;;;12.70;1.55;;;;;;;;;;5078552;28;20052;-85
2023/01/31 02:02:49;;;;;;;7.40;1.75;;;;;;;;;;5079993;28;20044;-84
2023/01/31 02:05:19;;;;;;;6.13;1.27;;;;;;;;;;5078732;28;20117;-85
2023/01/31 02:07:47;;;;;;;8.00;1.33;;;;;;;;;;5079778;28;20048;-84
2023/01/31 02:10:21;;;;;;;9.93;1.52;;;;;;;;;;5078701;28;20068;-84
2023/01/31 02:12:48;;;;;;;8.88;1.27;;;;;;;;;;5078366;28;20492;-84
2023/01/31 02:15:15;;;;;;;6.80;1.35;;;;;;;;;;5076906;28;20036;-84
2023/01/31 02:17:43;;;;;;;7.03;1.20;;;;;;;;;;5076606;28;20500;-84
2023/01/31 02:20:26;;;;;;;6.43;1.25;;;;;;;;;;5075735;28;20074;-84
2023/01/31 02:23:14;;;;;;;13.85;1.23;;;;;;;;;;5075775;28;20044;-84
2023/01/31 02:25:41;;;;;;;4.35;1.50;;;;;;;;;;5074328;28;20128;-84
2023/01/31 02:28:26;;;;;;;9.15;1.23;;;;;;;;;;5074565;28;20100;-84
2023/01/31 02:30:53;;;;;;;9.13;1.10;;;;;;;;;;5092332;28;20041;-84
2023/01/31 02:33:25;;;;;;;6.85;1.00;;;;;;;;;;5071681;28;20095;-84
2023/01/31 02:36:12;;;;;;;8.35;1.58;;;;;;;;;;5072434;28;20048;-84
2023/01/31 02:38:48;;;;;;;2.45;0.68;;;;;;;;;;5069778;28;20144;-84
2023/01/31 02:41:15;;;;;;;5.25;0.93;;;;;;;;;;5065638;28;20045;-84
2023/01/31 02:46:42;;;;;;;6.20;1.30;;;;;;;;;;5096309;28;20040;-85
2023/01/31 02:49:35;;;;;;;6.75;0.88;;;;;;;;;;5078319;28;20400;-85
2023/01/31 02:52:15;;;;;;;7.65;1.13;;;;;;;;;;5078556;28;20047;-84
2023/01/31 02:57:52;;;;;;;5.50;1.13;;;;;;;;;;5095203;28;20082;-85
2023/01/31 03:00:20;;;;;;;7.13;1.50;;;;;;;;;;5076687;28;20045;-85
2023/01/31 03:02:47;;;;;;;6.65;1.10;;;;;;;;;;5075068;28;20053;-85
2023/01/31 03:05:16;;;;;;;17.92;1.67;;;;;;;;;;5075403;28;20059;-85
2023/01/31 03:07:47;;;;;;;5.50;1.00;;;;;;;;;;5073045;28;20562;-85
2023/01/31 03:10:24;;;;;;;6.93;1.30;;;;;;;;;;5074753;28;20044;-84
2023/01/31 03:13:01;;;;;;;10.13;1.23;;;;;;;;;;5073436;28;20104;-84
2023/01/31 03:18:56;;;;;;;7.78;1.40;;;;;;;;;;5018228;28;20118;-84
2023/01/31 03:21:25;;;;;;;4.72;1.35;;;;;;;;;;5074398;28;20063;-85
2023/01/31 03:23:54;;;;;;;5.70;1.02;;;;;;;;;;5074231;28;20039;-85
2023/01/31 03:26:22;;;;;;;7.97;1.50;;;;;;;;;;5073907;28;20049;-84
2023/01/31 03:28:54;;;;;;;6.53;1.27;;;;;;;;;;5072138;28;20558;-85
2023/01/31 03:31:25;;;;;;;6.68;1.40;;;;;;;;;;5094026;28;20056;-84
2023/01/31 03:33:54;;;;;;;7.93;1.55;;;;;;;;;;5081372;28;20098;-85
2023/01/31 03:36:26;;;;;;;7.75;1.48;;;;;;;;;;5079848;28;20033;-85
2023/01/31 03:39:04;;;;;;;7.05;1.38;;;;;;;;;;5077620;28;20044;-85
2023/01/31 03:41:42;;;;;;;5.28;1.13;;;;;;;;;;5093471;28;20092;-85
2023/01/31 03:44:13;;;;;;;6.22;1.40;;;;;;;;;;5075124;28;20045;-83
2023/01/31 03:46:43;;;;;;;7.63;1.45;;;;;;;;;;5078399;28;20044;-85
2023/01/31 03:49:12;;;;;;;6.20;1.50;;;;;;;;;;5093334;28;20064;-84
2023/01/31 03:51:44;;;;;;;7.63;1.17;;;;;;;;;;5092617;28;20049;-85
2023/01/31 03:54:13;;;;;;;7.90;1.33;;;;;;;;;;5073996;28;20044;-85
2023/01/31 03:56:43;;;;;;;8.27;1.42;;;;;;;;;;5092277;28;20079;-85
2023/01/31 03:59:13;;;;;;;5.40;1.13;;;;;;;;;;5074871;28;20112;-85
2023/01/31 04:01:44;;;;;;;13.93;1.88;;;;;;;;;;5092922;28;20087;-84
2023/01/31 04:04:13;;;;;;;6.20;1.30;;;;;;;;;;5074521;28;20051;-85
2023/01/31 04:06:41;;;;;;;8.57;1.45;;;;;;;;;;5073539;28;20044;-85
2023/01/31 04:09:08;;;;;;;9.35;1.67;;;;;;;;;;5073511;28;20112;-85
2023/01/31 04:11:37;;;;;;;11.25;1.23;;;;;;;;;;5072618;28;20060;-84
2023/01/31 04:14:04;;;;;;;9.13;1.50;;;;;;;;;;5073369;28;20570;-85
2023/01/31 04:16:32;;;;;;;10.93;1.50;;;;;;;;;;5092392;28;20140;-85
2023/01/31 04:18:59;;;;;;;7.97;1.20;;;;;;;;;;5066440;28;20124;-84
2023/01/31 04:21:26;;;;;;;6.07;1.60;;;;;;;;;;5069313;28;20110;-85
2023/01/31 04:23:54;;;;;;;6.80;1.73;;;;;;;;;;5067723;28;20051;-84
2023/01/31 04:26:21;;;;;;;5.85;1.60;;;;;;;;;;5066329;28;20599;-85
2023/01/31 04:28:48;;;;;;;7.28;2.08;;;;;;;;;;5068016;28;20056;-85
2023/01/31 04:31:15;;;;;;;8.57;1.75;;;;;;;;;;5068291;28;20044;-85
2023/01/31 04:33:43;;;;;;;4.85;1.50;;;;;;;;;;5069227;28;20044;-84
2023/01/31 04:36:10;;;;;;;7.68;1.92;;;;;;;;;;5068768;28;20131;-84
2023/01/31 04:38:37;;;;;;;3.92;1.10;;;;;;;;;;5068311;28;20056;-85
2023/01/31 04:41:04;;;;;;;6.18;1.55;;;;;;;;;;5068733;28;20075;-85
2023/01/31 04:43:32;;;;;;;5.60;1.08;;;;;;;;;;5068587;28;20048;-85
2023/01/31 04:45:59;;;;;;;4.78;1.80;;;;;;;;;;5071911;28;20060;-85
2023/01/31 04:48:26;;;;;;;7.90;1.40;;;;;;;;;;5085072;28;20052;-85
2023/01/31 04:50:55;;;;;;;9.75;1.65;;;;;;;;;;5069939;28;20488;-85
2023/01/31 04:53:23;;;;;;;10.90;1.65;;;;;;;;;;5087437;28;20477;-85
2023/01/31 04:55:53;;;;;;;20.83;7.32;;;;;;;;;;5085817;28;20045;-85
2023/01/31 04:58:21;;;;;;;12.85;4.60;;;;;;;;;;5067283;28;20507;-86
2023/01/31 05:00:48;;;;;;;13.23;4.03;;;;;;;;;;5066905;28;20052;-86
2023/01/31 05:03:15;;;;;;;7.88;3.17;;;;;;;;;;5067837;28;20052;-84
2023/01/31 05:05:43;;;;;;;10.95;3.13;;;;;;;;;;5067738;28;20075;-84
2023/01/31 05:08:10;;;;;;;8.40;2.63;;;;;;;;;;5067996;28;20048;-84
2023/01/31 05:10:37;;;;;;;8.60;2.85;;;;;;;;;;5069572;28;20119;-85
2023/01/31 05:13:05;;;;;;;11.38;3.88;;;;;;;;;;5068836;28;20107;-85
2023/01/31 05:15:32;;;;;;;18.83;6.70;;;;;;;;;;5068844;28;20044;-84
2023/01/31 05:18:02;;;;;;;13.05;5.10;;;;;;;;;;5096946;22;20051;-82
2023/01/31 05:20:35;;;;;;;11.63;4.82;;;;;;;;;;5085768;28;20500;-81
2023/01/31 05:23:02;;;;;;;19.63;7.03;;;;;;;;;;5072257;28;20131;-82
2023/01/31 05:25:30;;;;;;;9.55;4.32;;;;;;;;;;5085982;28;20060;-82
2023/01/31 05:27:57;;;;;;;16.00;5.40;;;;;;;;;;5070366;28;20051;-82
2023/01/31 05:30:25;;;;;;;12.50;5.22;;;;;;;;;;5087652;28;20041;-80
2023/01/31 05:32:52;;;;;;;8.35;2.95;;;;;;;;;;5086473;28;20056;-82
2023/01/31 05:35:20;;;;;;;7.00;1.88;;;;;;;;;;5067203;28;20401;-82
2023/01/31 05:37:48;;;;;;;8.05;2.00;;;;;;;;;;5069371;28;20516;-81
2023/01/31 05:40:16;;;;;;;5.75;1.30;;;;;;;;;;5068006;28;20580;-81
2023/01/31 05:42:43;;;;;;;13.73;2.30;;;;;;;;;;5084907;28;20080;-81
2023/01/31 05:45:12;;;;;;;10.60;2.25;;;;;;;;;;5086454;28;20078;-82
2023/01/31 05:47:39;;;;;;;9.20;1.98;;;;;;;;;;5085328;28;20052;-82
2023/01/31 05:50:06;;;;;;;5.65;1.80;;;;;;;;;;5070212;28;20075;-82
2023/01/31 05:52:34;;;;;;;7.43;2.15;;;;;;;;;;5069801;28;20113;-82
2023/01/31 05:55:01;;;;;;;5.13;1.83;;;;;;;;;;5089820;28;20079;-81
2023/01/31 05:57:28;;;;;;;11.38;3.47;;;;;;;;;;5072542;28;20053;-82
2023/01/31 05:59:55;;;;;;;17.98;2.20;;;;;;;;;;5089439;28;20052;-80
2023/01/31 06:02:23;;;;;;;10.88;2.05;;;;;;;;;;5086668;28;20053;-82
2023/01/31 06:04:50;;;;;;;7.75;2.33;;;;;;;;;;5085020;28;20116;-82
2023/01/31 06:07:17;;;;;;;8.48;2.05;;;;;;;;;;5067006;28;20055;-81
2023/01/31 06:09:44;;;;;;;9.43;3.17;;;;;;;;;;5069841;28;20100;-82
2023/01/31 06:12:13;;;;;;;9.00;2.65;;;;;;;;;;5088101;28;20044;-82
2023/01/31 06:14:41;;;;;;;9.55;2.70;;;;;;;;;;5071209;28;20051;-82
2023/01/31 06:17:08;;;;;;;14.15;4.03;;;;;;;;;;5092635;28;20088;-82
2023/01/31 06:19:36;;;;;;;20.58;8.35;;;;;;;;;;5090496;28;20052;-82
2023/01/31 06:22:04;;;;;;;19.67;7.90;;;;;;;;;;5074662;28;20076;-83
2023/01/31 06:24:31;;;;;;;23.15;7.50;;;;;;;;;;5089693;28;20295;-83
2023/01/31 06:26:58;;;;;;;30.83;7.80;;;;;;;;;;5090524;28;20052;-82
2023/01/31 06:29:25;;;;;;;12.80;4.25;;;;;;;;;;5071396;28;20052;-82
2023/01/31 06:31:52;;;;;;;8.13;3.05;;;;;;;;;;5088694;28;20115;-82
2023/01/31 06:34:19;;;;;;;13.98;3.58;;;;;;;;;;5086991;28;20082;-82
2023/01/31 06:36:47;;;;;;;11.60;3.45;;;;;;;;;;5070657;28;20059;-81
2023/01/31 06:39:14;;;;;;;16.40;6.05;;;;;;;;;;5070874;28;20107;-81
2023/01/31 06:41:41;;;;;;;15.60;4.13;;;;;;;;;;5070575;28;20108;-83
2023/01/31 06:44:09;;;;;;;9.93;3.50;;;;;;;;;;5086810;28;20534;-81
2023/01/31 06:46:36;;;;;;;16.05;4.47;;;;;;;;;;5088786;28;20064;-83
2023/01/31 06:49:03;;;;;;;10.85;3.83;;;;;;;;;;5073450;28;20048;-83
2023/01/31 06:51:30;;;;;;;12.10;3.60;;;;;;;;;;5089528;28;20076;-82
2023/01/31 06:53:58;;;;;;;15.05;3.83;;;;;;;;;;5091781;28;20072;-82
2023/01/31 06:56:25;;;;;;;9.98;4.20;;;;;;;;;;5070106;28;20538;-81
2023/01/31 06:58:52;;;;;;;14.25;4.07;;;;;;;;;;5085866;28;20143;-81
2023/01/31 07:01:21;;;;;;;15.00;4.85;;;;;;;;;;5065844;28;20048;-82
2023/01/31 07:03:48;;;;;;;14.88;3.95;;;;;;;;;;5084138;28;20048;-84
2023/01/31 07:06:18;;;;;;;13.48;4.35;;;;;;;;;;5064336;28;20052;-83
2023/01/31 07:08:46;;;;;;;13.95;3.95;;;;;;;;;;5064191;28;20044;-82
2023/01/31 07:11:13;;;;;;;12.15;3.03;;;;;;;;;;5056390;28;20125;-83
2023/01/31 07:13:40;;;;;;;12.13;3.35;;;;;;;;;;5049738;28;20152;-83
2023/01/31 07:16:07;;;;;;;10.02;3.15;;;;;;;;;;5043679;28;20048;-83
2023/01/31 07:18:35;;;;;;;11.68;3.78;;;;;;;;;;5042423;28;20053;-83
2023/01/31 07:21:02;;;;;;;9.43;4.00;;;;;;;;;;5042178;28;20044;-81
2023/01/31 07:23:29;;;;;;;10.15;4.30;;;;;;;;;;5041301;28;20424;-82
2023/01/31 07:25:57;;;;;;;10.15;4.22;;;;;;;;;;5059710;28;20064;-82
2023/01/31 07:28:24;;;;;;;13.57;4.25;;;;;;;;;;5041204;28;20435;-82
2023/01/31 07:30:51;;;;;;;10.02;3.78;;;;;;;;;;5044452;28;20057;-82
2023/01/31 07:33:19;;;;;;;7.38;3.40;;;;;;;;;;5061505;28;20041;-83
2023/01/31 07:35:46;;;;;;;8.63;3.63;;;;;;;;;;5043746;28;20068;-81
2023/01/31 07:38:13;;;;;;;8.10;3.40;;;;;;;;;;5061678;28;20117;-82
2023/01/31 07:40:40;;;;;;;14.95;4.45;;;;;;;;;;5060543;28;20137;-83
2023/01/31 07:43:08;;;;;;;7.15;3.80;;;;;;;;;;5044594;28;20049;-83
2023/01/31 07:45:35;;;;;;;15.55;6.07;;;;;;;;;;5044919;28;20108;-83
2023/01/31 07:48:03;;;;;;;15.57;6.00;;;;;;;;;;5062820;28;20049;-83
2023/01/31 07:50:30;;;;;;;12.80;5.13;;;;;;;;;;5044401;28;20148;-83
2023/01/31 07:52:58;;;;;;;9.52;3.90;;;;;;;;;;5061611;28;20063;-82
2023/01/31 07:55:26;;;;;;;17.23;5.65;;;;;;;;;;5044210;28;20048;-83
2023/01/31 07:57:53;;;;;;;21.58;6.80;;;;;;;;;;5044922;28;20045;-83
2023/01/31 08:03:31;;;;;;;13.75;6.18;;;;;;;;;;5045463;28;20079;-84
2023/01/31 08:03:31;;;;;;;14.55;5.25;;;;;;;;;;5062956;28;20057;-84
2023/01/31 08:06:00;;;;;;;11.65;4.75;;;;;;;;;;5046222;28;20107;-84
2023/01/31 08:08:28;;;;;;;6.93;3.25;;;;;;;;;;5046131;28;20052;-84
2023/01/31 08:10:55;;;;;;;13.40;3.08;;;;;;;;;;5063520;28;20057;-83
2023/01/31 08:13:25;;;;;;;24.45;3.58;;;;;;;;;;5048331;28;20072;-83
2023/01/31 08:15:55;;;;;;;28.98;4.50;;;;;;;;;;5064976;28;20048;-83
2023/01/31 08:18:22;;;;;;;15.48;3.80;;;;;;;;;;5041849;28;20053;-83
2023/01/31 08:20:50;;;;;;;12.52;2.85;;;;;;;;;;5041968;28;20049;-84
2023/01/31 08:23:17;;;;;;;17.00;3.38;;;;;;;;;;5042167;28;20574;-84
2023/01/31 08:25:44;;;;;;;19.92;3.05;;;;;;;;;;5042882;28;20129;-83
2023/01/31 08:28:12;;;;;;;10.13;1.90;;;;;;;;;;5040582;28;20049;-82
2023/01/31 08:30:41;;;;;;;10.60;2.08;;;;;;;;;;5039088;28;20053;-83
2023/01/31 08:33:08;;;;;;;9.57;2.70;;;;;;;;;;5041322;28;20057;-83
2023/01/31 08:35:36;;;;;;;8.27;2.53;;;;;;;;;;5040099;28;20113;-84
2023/01/31 08:38:04;;;;;;;7.82;2.90;;;;;;;;;;5040565;28;20136;-83
2023/01/31 08:40:42;;;;;;;9.43;1.77;;;;;;;;;;5041921;28;20592;-82
2023/01/31 08:43:09;;;;;;;12.30;2.17;;;;;;;;;;5040403;28;20076;-83
2023/01/31 08:45:37;;;;;;;6.30;1.67;;;;;;;;;;5041504;28;20132;-83
2023/01/31 08:48:04;;;;;;;23.30;3.58;;;;;;;;;;5039528;28;20080;-82
2023/01/31 08:50:32;;;;;;;11.15;2.20;;;;;;;;;;5039713;28;20045;-81
2023/01/31 08:53:00;;;;;;;7.65;1.40;;;;;;;;;;5040908;28;20103;-83
2023/01/31 08:55:28;;;;;;;12.70;1.95;;;;;;;;;;5040063;28;20055;-83
2023/01/31 08:57:56;;;;;;;8.02;1.52;;;;;;;;;;5041320;28;20056;-83
2023/01/31 09:00:26;;;;;;;6.13;1.70;;;;;;;;;;5039323;28;20053;-83
2023/01/31 09:02:53;;;;;;;20.55;2.10;;;;;;;;;;5039848;28;20049;-83
2023/01/31 09:05:21;;;;;;;9.55;2.00;;;;;;;;;;5040913;28;20057;-81
2023/01/31 09:07:48;;;;;;;8.23;2.10;;;;;;;;;;5040206;28;20104;-83
2023/01/31 09:10:16;;;;;;;8.35;1.60;;;;;;;;;;5040787;28;20493;-83
2023/01/31 09:12:43;;;;;;;8.13;1.83;;;;;;;;;;5041445;28;20064;-83
2023/01/31 09:15:11;;;;;;;7.50;1.83;;;;;;;;;;5049296;28;20088;-83
2023/01/31 09:17:39;;;;;;;13.30;1.60;;;;;;;;;;5051664;28;20472;-84
2023/01/31 09:20:08;;;;;;;11.50;2.15;;;;;;;;;;5059168;28;20045;-82
2023/01/31 09:22:36;;;;;;;7.32;2.35;;;;;;;;;;5042491;28;20053;-83
2023/01/31 09:25:03;;;;;;;18.98;2.20;;;;;;;;;;5042980;28;20044;-83
2023/01/31 09:27:30;;;;;;;6.65;3.22;;;;;;;;;;5043139;28;20144;-83
2023/01/31 09:29:58;;;;;;;16.88;3.08;;;;;;;;;;5042279;28;20053;-83
2023/01/31 09:32:25;;;;;;;12.07;2.00;;;;;;;;;;5042454;28;20049;-81
2023/01/31 09:34:52;;;;;;;7.00;1.92;;;;;;;;;;5041679;28;20123;-81
2023/01/31 09:37:19;;;;;;;8.75;2.28;;;;;;;;;;5042007;28;20071;-83
2023/01/31 09:39:46;;;;;;;8.57;2.00;;;;;;;;;;5042627;28;20493;-83
2023/01/31 09:42:23;;;;;;;13.95;5.53;;;;;;;;;;5060630;28;20095;-83
2023/01/31 09:45:00;;;;;;;10.82;2.60;;;;;;;;;;5045273;28;20083;-83
2023/01/31 09:47:29;;;;;;;8.02;2.92;;;;;;;;;;5048580;28;20064;-81
2023/01/31 09:50:04;;;;;;;7.85;1.65;;;;;;;;;;5051682;28;20052;-83
2023/01/31 09:52:31;;;;;;;7.95;2.03;;;;;;;;;;5050118;28;20045;-83
2023/01/31 09:54:59;;;;;;;11.35;2.28;;;;;;;;;;5050730;28;20519;-83
2023/01/31 09:57:49;;;;;;;12.23;2.38;;;;;;;;;;5048546;28;20108;-84
2023/01/31 10:00:35;;;;;;;12.02;2.22;;;;;;;;;;5051090;28;20551;-82
2023/01/31 10:03:18;;;;;;;8.45;1.80;;;;;;;;;;5066004;28;20072;-82
2023/01/31 10:05:49;;;;;;;14.13;2.42;;;;;;;;;;5049388;28;20080;-82
2023/01/31 10:08:27;;;;;;;7.90;2.10;;;;;;;;;;5047991;28;20104;-82
2023/01/31 10:10:58;;;;;;;12.48;2.10;;;;;;;;;;5047283;28;20049;-83
2023/01/31 10:13:34;;;;;;;8.98;1.80;;;;;;;;;;5064786;28;20088;-82
2023/01/31 10:16:13;;;;;;;8.60;1.98;;;;;;;;;;5065206;28;20462;-83
2023/01/31 10:18:44;;;;;;;7.40;2.25;;;;;;;;;;5063721;28;20053;-82
2023/01/31 10:21:28;;;;;;;9.18;2.40;;;;;;;;;;5048703;28;20081;-83
2023/01/31 10:24:12;;;;;;;8.48;2.25;;;;;;;;;;5048184;28;20107;-83
2023/01/31 10:26:41;;;;;;;6.50;2.03;;;;;;;;;;5065828;28;20496;-84
2023/01/31 10:29:12;;;;;;;12.50;2.55;;;;;;;;;;5048538;28;20053;-83
2023/01/31 10:31:50;;;;;;;8.48;2.00;;;;;;;;;;5048940;28;20045;-83
2023/01/31 10:34:20;;;;;;;14.45;2.70;;;;;;;;;;5047754;28;20540;-84
2023/01/31 10:36:55;;;;;;;8.93;2.03;;;;;;;;;;5048944;28;20072;-83
2023/01/31 10:39:38;;;;;;;12.20;2.50;;;;;;;;;;5049049;28;20044;-83
2023/01/31 10:42:08;;;;;;;10.50;2.13;;;;;;;;;;5048969;28;20057;-82
2023/01/31 10:44:42;;;;;;;9.88;2.60;;;;;;;;;;5047701;28;20073;-83
2023/01/31 10:47:13;;;;;;;9.88;2.33;;;;;;;;;;5069022;28;20125;-83
2023/01/31 10:49:43;;;;;;;16.77;3.88;;;;;;;;;;5048482;28;20047;-84
2023/01/31 10:52:14;;;;;;;12.10;2.75;;;;;;;;;;5049441;28;20045;-83
2023/01/31 10:54:45;;;;;;;13.82;2.45;;;;;;;;;;5065916;28;20104;-84
2023/01/31 10:57:13;;;;;;;10.23;2.70;;;;;;;;;;5067891;28;20055;-84
2023/01/31 10:59:42;;;;;;;14.85;2.90;;;;;;;;;;5052305;28;20080;-83
2023/01/31 11:02:18;;;;;;;11.52;3.00;;;;;;;;;;5051124;28;20099;-83
2023/01/31 11:04:45;;;;;;;16.15;2.70;;;;;;;;;;5050934;28;20052;-83
2023/01/31 11:07:12;;;;;;;9.60;2.97;;;;;;;;;;5051227;28;20468;-82
2023/01/31 11:09:41;;;;;;;14.77;3.03;;;;;;;;;;5052196;28;20517;-82
2023/01/31 11:12:08;;;;;;;14.18;2.85;;;;;;;;;;5068422;28;20059;-83
2023/01/31 11:14:36;;;;;;;16.00;3.17;;;;;;;;;;5052466;28;20045;-84
2023/01/31 11:17:14;;;;;;;12.98;2.65;;;;;;;;;;5068501;28;20171;-83
2023/01/31 11:19:41;;;;;;;7.20;2.47;;;;;;;;;;5067585;22;20080;-88
2023/01/31 11:22:08;;;;;;;13.48;3.00;;;;;;;;;;5054070;28;20049;-88
2023/01/31 11:24:40;;;;;;;8.88;2.88;;;;;;;;;;5053732;28;20102;-88
2023/01/31 11:27:09;;;;;;;9.32;2.75;;;;;;;;;;5055013;28;20055;-88
2023/01/31 11:29:44;;;;;;;9.38;2.60;;;;;;;;;;5053560;28;20045;-88
2023/01/31 11:32:23;;;;;;;9.88;2.90;;;;;;;;;;5053950;28;20045;-87
2023/01/31 11:35:21;;;;;;;13.90;2.88;;;;;;;;;;5053577;28;20045;-87
2023/01/31 11:37:52;;;;;;;8.48;2.55;;;;;;;;;;5053839;28;20053;-87
2023/01/31 11:40:38;;;;;;;21.52;3.22;;;;;;;;;;5053779;28;20063;-88
2023/01/31 11:43:21;;;;;;;23.48;3.90;;;;;;;;;;5053563;28;20041;-88
2023/01/31 11:45:57;;;;;;;10.20;2.50;;;;;;;;;;5054596;28;20049;-88
2023/01/31 11:48:26;;;;;;;14.50;3.78;;;;;;;;;;5053062;28;20140;-88
2023/01/31 11:50:58;;;;;;;13.88;2.75;;;;;;;;;;5053571;28;20080;-87
2023/01/31 11:53:27;;;;;;;14.25;2.95;;;;;;;;;;5053441;28;20572;-87
2023/01/31 11:55:55;;;;;;;10.85;2.85;;;;;;;;;;5053333;28;20045;-87
2023/01/31 11:58:24;;;;;;;15.38;3.45;;;;;;;;;;5054411;28;20049;-87
2023/01/31 12:01:00;;;;;;;16.08;3.30;;;;;;;;;;5053112;28;20049;-88
2023/01/31 12:03:28;;;;;;;16.00;3.10;;;;;;;;;;5053495;28;20132;-88
2023/01/31 12:06:00;;;;;;;17.42;3.28;;;;;;;;;;5053058;28;20052;-88
2023/01/31 12:08:29;;;;;;;12.48;3.00;;;;;;;;;;5053213;28;20394;-88
2023/01/31 12:10:57;;;;;;;11.05;2.90;;;;;;;;;;5053235;28;20053;-87
2023/01/31 12:13:24;;;;;;;14.68;2.85;;;;;;;;;;5056183;28;20041;-88
2023/01/31 12:15:54;;;;;;;10.43;2.92;;;;;;;;;;5053214;28;20053;-88
2023/01/31 12:18:47;;;;;;;15.38;3.00;;;;;;;;;;5052718;28;20092;-88
2023/01/31 12:21:16;;;;;;;14.57;2.53;;;;;;;;;;5052772;28;20080;-88
2023/01/31 12:23:49;;;;;;;13.63;3.50;;;;;;;;;;5052776;28;20111;-87
2023/01/31 12:26:39;;;;;;;9.93;2.67;;;;;;;;;;5052745;28;20390;-88
2023/01/31 12:29:09;;;;;;;15.45;2.40;;;;;;;;;;5052965;28;20056;-88
2023/01/31 12:31:50;;;;;;;11.50;2.83;;;;;;;;;;5052875;28;20394;-87
2023/01/31 12:34:21;;;;;;;9.88;2.83;;;;;;;;;;5052784;28;20060;-90
2023/01/31 12:36:57;;;;;;;9.02;2.10;;;;;;;;;;5052787;28;20538;-89
2023/01/31 12:40:03;;;;;;;12.13;2.50;;;;;;;;;;5053010;28;20068;-88
2023/01/31 12:42:54;;;;;;;5.38;1.80;;;;;;;;;;5018163;28;20609;-88
2023/01/31 12:45:29;;;;;;;5.88;1.77;;;;;;;;;;5015681;28;20095;-88
2023/01/31 12:48:14;;;;;;;7.78;1.60;;;;;;;;;;5041081;28;20048;-91
2023/01/31 12:50:48;;;;;;;5.22;1.60;;;;;;;;;;5053015;28;20139;-89
2023/01/31 12:53:15;;;;;;;12.50;2.13;;;;;;;;;;5053684;28;20175;-89
2023/01/31 12:55:42;;;;;;;5.63;1.38;;;;;;;;;;5053100;28;20071;-88
2023/01/31 12:58:19;;;;;;;5.10;1.60;;;;;;;;;;5053483;28;20056;-89
2023/01/31 13:00:55;;;;;;;3.47;1.63;;;;;;;;;;5052950;28;20136;-90
2023/01/31 13:03:29;;;;;;;3.55;1.50;;;;;;;;;;5052900;28;20131;-88
2023/01/31 13:05:56;;;;;;;;;;;;;;;;;;5053106;28;20447;-88
2023/01/31 13:08:26;;;;;;;4.80;1.98;;;;;;;;;;5053774;28;19921;-88
2023/01/31 13:10:58;;;;;;;4.68;1.83;;;;;;;;;;5054077;28;20122;-88
2023/01/31 13:13:27;;;;;;;3.45;1.60;;;;;;;;;;5053658;28;20083;-88
2023/01/31 13:15:59;;;;;;;3.65;1.63;;;;;;;;;;5052589;28;20080;-89
2023/01/31 13:18:26;;;;;;;3.55;1.67;;;;;;;;;;5052674;28;20056;-88
2023/01/31 13:20:56;;;;;;;2.83;1.30;;;;;;;;;;5054075;28;20404;-89
2023/01/31 13:23:36;;;;;;;4.38;1.58;;;;;;;;;;5056950;28;20405;-88
2023/01/31 13:26:25;;;;;;;4.57;2.08;;;;;;;;;;5072532;28;20053;-89
2023/01/31 13:29:11;;;;;;;3.95;1.60;;;;;;;;;;5058431;28;20107;-89
2023/01/31 13:31:44;;;;;;;4.40;1.70;;;;;;;;;;5057525;28;20103;-90
2023/01/31 13:34:12;;;;;;;;;;;;;;;;;;5057764;28;20061;-89
2023/01/31 13:36:50;;;;;;;4.43;1.60;;;;;;;;;;5056806;28;20376;-90
2023/01/31 13:39:27;;;;;;;4.25;2.00;;;;;;;;;;5057032;28;20145;-91
2023/01/31 13:41:54;;;;;;;4.45;1.70;;;;;;;;;;5056843;28;20098;-91
2023/01/31 13:44:21;;;;;;;5.25;1.27;;;;;;;;;;5057661;28;20048;-89
2023/01/31 13:47:11;;;;;;;2.83;1.67;;;;;;;;;;5058868;28;20128;-93
2023/01/31 13:49:43;;;;;;;3.22;1.73;;;;;;;;;;5058286;28;20136;-89
2023/01/31 13:52:17;;;;;;;6.10;1.58;;;;;;;;;;5058523;28;20052;-90
2023/01/31 13:55:04;;;;;;;4.63;2.10;;;;;;;;;;5057039;28;20045;-89
2023/01/31 13:57:45;;;;;;;3.63;1.60;;;;;;;;;;5056523;28;20091;-89
2023/01/31 14:00:22;;;;;;;1.55;1.40;;;;;;;;;;5057070;28;20045;-89
2023/01/31 14:03:01;;;;;;;1.35;1.23;;;;;;;;;;5057106;28;20103;-90
2023/01/31 14:05:47;;;;;;;2.22;1.63;;;;;;;;;;5057197;28;20047;-91
2023/01/31 14:08:33;;;;;;;2.13;1.30;;;;;;;;;;5057244;28;20546;-89
2023/01/31 14:11:13;;;;;;;2.13;1.25;;;;;;;;;;5056969;28;20049;-89
2023/01/31 14:13:43;;;;;;;1.60;1.00;;;;;;;;;;5057108;28;20102;-89
2023/01/31 14:16:29;;;;;;;4.13;1.48;;;;;;;;;;5057170;28;20135;-89
2023/01/31 14:18:57;;;;;;;1.63;1.15;;;;;;;;;;5056836;28;20060;-88
2023/01/31 14:21:31;;;;;;;2.75;1.20;;;;;;;;;;5057216;28;20045;-89
2023/01/31 14:23:59;;;;;;;2.55;1.83;;;;;;;;;;5056855;28;20045;-89
2023/01/31 14:26:42;;;;;;;3.28;1.10;;;;;;;;;;5055722;28;20041;-89
2023/01/31 14:29:09;;;;;;;2.08;1.55;;;;;;;;;;5056039;28;20497;-90
2023/01/31 14:31:36;;;;;;;1.67;1.00;;;;;;;;;;5055955;28;20049;-89
2023/01/31 14:34:05;;;;;;;1.23;1.15;;;;;;;;;;5054993;28;20051;-91
2023/01/31 14:36:32;;;;;;;1.35;1.25;;;;;;;;;;5055923;28;20059;-88
2023/01/31 14:38:59;;;;;;;1.65;1.10;;;;;;;;;;5068029;28;20568;-88
2023/01/31 14:41:56;;;;;;;4.30;1.70;;;;;;;;;;5057820;28;20072;-88
2023/01/31 14:44:40;;;;;;;2.60;1.20;;;;;;;;;;5020793;28;20456;-89
2023/01/31 14:47:20;;;;;;;1.75;1.30;;;;;;;;;;5055350;28;20113;-90
2023/01/31 14:49:55;;;;;;;4.55;1.65;;;;;;;;;;5055408;28;20052;-88
2023/01/31 14:52:32;;;;;;;6.88;1.70;;;;;;;;;;5054766;28;20053;-88
2023/01/31 14:55:07;;;;;;;9.55;3.03;;;;;;;;;;5054791;28;20140;-89
2023/01/31 14:57:40;;;;;;;4.30;1.73;;;;;;;;;;5054854;28;20076;-90
2023/01/31 15:00:13;;;;;;;2.92;1.95;;;;;;;;;;5054975;28;20079;-89
2023/01/31 15:02:45;;;;;;;2.40;1.52;;;;;;;;;;5054793;28;20455;-89
2023/01/31 15:05:14;;;;;;;2.38;1.80;;;;;;;;;;5054533;28;20053;-89
2023/01/31 15:08:06;;;;;;;3.40;1.63;;;;;;;;;;5054891;28;20053;-88
2023/01/31 15:10:52;;;;;;;2.58;1.50;;;;;;;;;;5054579;28;20417;-89